Terminal Aerodrome Forecast
Issued by NWS

Home | Current Version | Previous Version | Graphics & Text | Print | Product List | Glossary On
Versions: 1 2 3 4 5 6 7 8 9 10 11 12 13 14 15 16 17
000
FTUS43 KMPX 160200 AAA
TAFRNH
TAF AMD
KRNH 160243Z 1603/1624 35012G20KT 5SM -RA BR OVC006
      TEMPO 1603/1605 2SM -RASN OVC010
     FM160500 34017G25KT 1 1/2SM -SN OVC010
     FM161100 33019G27KT 5SM -SN OVC010
     FM161300 33017G24KT P6SM OVC014
     FM162100 32014KT P6SM OVC018=

USA.gov is the U.S. government's official web portal to all federal, state and local government web resources and services.